Time;durP1;ratioP1;P1;durP2;ratioP2;P2;SDS_P1;SDS_P2;PMS_P1;PMS_P2;Temp;Humidity;BMP_temperature;BMP_pressure;BME280_temperature;BME280_humidity;BME280_pressure;Samples;Min_cycle;Max_cycle;Signal;HPM_P1;HPM_P2
2022/04/30 00:02:08;;;;;;;10.20;5.38;;;;;;;;;;5032179;28;20051;-84
2022/04/30 00:04:34;;;;;;;14.63;5.70;;;;;;;;;;5033057;28;20021;-83
2022/04/30 00:06:59;;;;;;;15.25;5.80;;;;;;;;;;5032611;28;20021;-84
2022/04/30 00:09:24;;;;;;;10.93;6.03;;;;;;;;;;5033991;28;20018;-84
2022/04/30 00:11:49;;;;;;;13.38;5.75;;;;;;;;;;5032034;28;20025;-84
2022/04/30 00:14:14;;;;;;;13.50;5.90;;;;;;;;;;5033832;28;20026;-84
2022/04/30 00:16:40;;;;;;;14.02;6.47;;;;;;;;;;5033815;28;20424;-84
2022/04/30 00:19:06;;;;;;;11.18;6.00;;;;;;;;;;5032802;28;20013;-84
2022/04/30 00:21:31;;;;;;;16.38;6.53;;;;;;;;;;5066011;28;20487;-84
2022/04/30 00:23:57;;;;;;;12.10;6.10;;;;;;;;;;5032134;28;20021;-83
2022/04/30 00:26:22;;;;;;;12.45;6.13;;;;;;;;;;5032520;28;20120;-84
2022/04/30 00:28:47;;;;;;;12.40;5.93;;;;;;;;;;5032567;28;20032;-83
2022/04/30 00:31:13;;;;;;;11.45;6.03;;;;;;;;;;5032183;28;20413;-83
2022/04/30 00:33:38;;;;;;;10.07;6.10;;;;;;;;;;5032253;28;20498;-84
2022/04/30 00:36:03;;;;;;;11.68;5.28;;;;;;;;;;5032065;28;20030;-84
2022/04/30 00:38:28;;;;;;;12.40;6.43;;;;;;;;;;5031817;28;20080;-84
2022/04/30 00:40:55;;;;;;;14.68;6.72;;;;;;;;;;5032365;28;20490;-84
2022/04/30 00:43:20;;;;;;;12.60;6.60;;;;;;;;;;5033037;28;20032;-84
2022/04/30 00:45:47;;;;;;;12.18;6.20;;;;;;;;;;5032233;28;20026;-84
2022/04/30 00:48:12;;;;;;;12.73;6.32;;;;;;;;;;5033176;28;20369;-84
2022/04/30 00:50:38;;;;;;;10.52;6.22;;;;;;;;;;5033320;28;20072;-84
2022/04/30 00:53:03;;;;;;;12.48;6.45;;;;;;;;;;5032503;28;20025;-84
2022/04/30 00:55:29;;;;;;;10.30;5.88;;;;;;;;;;5031635;28;20029;-84
2022/04/30 00:57:58;;;;;;;13.80;6.20;;;;;;;;;;5031642;28;20032;-84
2022/04/30 01:00:26;;;;;;;9.38;5.70;;;;;;;;;;5031994;28;20025;-84
2022/04/30 01:02:51;;;;;;;14.18;5.45;;;;;;;;;;5032829;28;20104;-84
2022/04/30 01:05:17;;;;;;;11.75;5.47;;;;;;;;;;5032807;28;20104;-84
2022/04/30 01:07:42;;;;;;;12.38;5.22;;;;;;;;;;5030981;28;20480;-84
2022/04/30 01:10:08;;;;;;;9.45;4.82;;;;;;;;;;5064927;28;20057;-84
2022/04/30 01:12:34;;;;;;;11.32;5.40;;;;;;;;;;5030988;28;20083;-84
2022/04/30 01:15:04;;;;;;;11.13;5.28;;;;;;;;;;5031459;28;20029;-84
2022/04/30 01:17:29;;;;;;;8.43;5.28;;;;;;;;;;5031576;28;20120;-84
2022/04/30 01:19:54;;;;;;;11.70;4.85;;;;;;;;;;5031635;28;20060;-84
2022/04/30 01:22:48;;;;;;;9.60;5.32;;;;;;;;;;5031976;28;20031;-84
2022/04/30 01:25:14;;;;;;;11.93;5.88;;;;;;;;;;5064714;28;20048;-84
2022/04/30 01:27:40;;;;;;;10.80;5.32;;;;;;;;;;5064897;28;20018;-84
2022/04/30 01:30:06;;;;;;;10.23;4.90;;;;;;;;;;5031502;28;20018;-84
2022/04/30 01:38:00;;;;;;;10.95;4.50;;;;;;;;;;5032841;28;20033;-83
2022/04/30 01:40:25;;;;;;;8.43;4.45;;;;;;;;;;5031264;28;20022;-84
2022/04/30 01:42:58;;;;;;;12.38;5.05;;;;;;;;;;5030685;28;20033;-84
2022/04/30 01:45:24;;;;;;;11.68;4.30;;;;;;;;;;5030921;28;20041;-83
2022/04/30 01:47:50;;;;;;;10.20;4.88;;;;;;;;;;5031121;28;20022;-84
2022/04/30 01:50:15;;;;;;;10.85;4.65;;;;;;;;;;5030990;28;20028;-84
2022/04/30 01:52:41;;;;;;;10.77;5.38;;;;;;;;;;5030437;28;20025;-84
2022/04/30 01:55:06;;;;;;;9.82;5.22;;;;;;;;;;5030874;28;20110;-84
2022/04/30 01:57:31;;;;;;;11.35;4.55;;;;;;;;;;5030454;28;20354;-83
2022/04/30 01:59:57;;;;;;;8.05;4.40;;;;;;;;;;5032223;28;20009;-84
2022/04/30 02:02:26;;;;;;;8.57;4.35;;;;;;;;;;5030534;28;20018;-84
2022/04/30 02:04:52;;;;;;;15.15;4.40;;;;;;;;;;5030783;28;20099;-84
2022/04/30 02:07:19;;;;;;;7.30;4.30;;;;;;;;;;5030500;28;20021;-84
2022/04/30 02:09:44;;;;;;;12.23;4.38;;;;;;;;;;5030487;28;20437;-84
2022/04/30 02:12:09;;;;;;;11.88;4.93;;;;;;;;;;5030378;28;20095;-84
2022/04/30 02:14:36;;;;;;;9.43;4.80;;;;;;;;;;5064167;28;20052;-84
2022/04/30 02:17:02;;;;;;;11.02;4.50;;;;;;;;;;5030246;28;20022;-83
2022/04/30 02:19:28;;;;;;;7.97;4.25;;;;;;;;;;5030258;28;20032;-84
2022/04/30 02:21:57;;;;;;;13.95;4.45;;;;;;;;;;5031506;28;20025;-84
2022/04/30 02:24:23;;;;;;;11.27;4.53;;;;;;;;;;5030555;28;20025;-84
2022/04/30 02:26:48;;;;;;;10.32;4.22;;;;;;;;;;5030088;28;20024;-84
2022/04/30 02:29:13;;;;;;;8.82;4.32;;;;;;;;;;5030656;28;20017;-83
2022/04/30 02:31:39;;;;;;;14.25;4.85;;;;;;;;;;5031031;28;20041;-84
2022/04/30 02:34:04;;;;;;;7.45;3.58;;;;;;;;;;5030011;28;20056;-84
2022/04/30 02:36:30;;;;;;;9.75;4.22;;;;;;;;;;5031938;28;20021;-84
2022/04/30 02:38:56;;;;;;;9.18;4.68;;;;;;;;;;5030394;28;20029;-83
2022/04/30 02:41:22;;;;;;;10.02;3.97;;;;;;;;;;5031785;28;20025;-84
2022/04/30 02:43:48;;;;;;;6.70;3.83;;;;;;;;;;5029930;28;20476;-84
2022/04/30 02:46:14;;;;;;;12.52;5.13;;;;;;;;;;5030165;28;20026;-84
2022/04/30 02:48:39;;;;;;;14.07;3.90;;;;;;;;;;5063450;28;20014;-84
2022/04/30 02:51:04;;;;;;;9.48;3.65;;;;;;;;;;5030509;28;20017;-83
2022/04/30 02:53:29;;;;;;;11.05;4.20;;;;;;;;;;5029906;28;20103;-84
2022/04/30 02:55:55;;;;;;;9.90;4.28;;;;;;;;;;5030187;28;20028;-83
2022/04/30 03:01:05;;;;;;;7.57;3.57;;;;;;;;;;5031542;28;20067;-84
2022/04/30 03:03:30;;;;;;;8.63;4.30;;;;;;;;;;5046057;28;20029;-83
2022/04/30 03:05:59;;;;;;;9.10;3.97;;;;;;;;;;5063844;28;20029;-83
2022/04/30 03:08:26;;;;;;;11.07;4.20;;;;;;;;;;5063259;28;20041;-84
2022/04/30 03:10:55;;;;;;;13.00;4.10;;;;;;;;;;5031233;28;20537;-84
2022/04/30 03:13:20;;;;;;;9.03;3.90;;;;;;;;;;5063059;28;20468;-83
2022/04/30 03:15:50;;;;;;;8.73;4.10;;;;;;;;;;5031291;28;20155;-84
2022/04/30 03:23:29;;;;;;;12.03;4.40;;;;;;;;;;5030627;28;20060;-84
2022/04/30 03:25:54;;;;;;;8.13;3.73;;;;;;;;;;5063323;28;20455;-84
2022/04/30 03:28:19;;;;;;;9.43;4.40;;;;;;;;;;5031322;28;20045;-84
2022/04/30 03:30:46;;;;;;;7.80;4.33;;;;;;;;;;5063258;28;20391;-84
2022/04/30 03:33:11;;;;;;;11.00;4.37;;;;;;;;;;5045970;28;20028;-84
2022/04/30 03:35:37;;;;;;;9.53;4.20;;;;;;;;;;5031197;28;20022;-83
2022/04/30 03:38:02;;;;;;;11.80;4.47;;;;;;;;;;5063361;28;20048;-83
2022/04/30 03:40:28;;;;;;;9.80;4.77;;;;;;;;;;5066830;28;20021;-83
2022/04/30 03:42:54;;;;;;;10.43;4.73;;;;;;;;;;5066102;28;20016;-84
2022/04/30 03:45:19;;;;;;;9.97;4.80;;;;;;;;;;5066703;28;20137;-83
2022/04/30 03:47:44;;;;;;;13.23;5.10;;;;;;;;;;5066705;28;20045;-83
2022/04/30 03:50:10;;;;;;;10.67;5.07;;;;;;;;;;5049951;28;20377;-83
2022/04/30 03:52:35;;;;;;;11.27;5.20;;;;;;;;;;5066064;28;20022;-83
2022/04/30 03:55:03;;;;;;;11.50;5.10;;;;;;;;;;5066457;28;20401;-83
2022/04/30 03:57:31;;;;;;;10.23;5.13;;;;;;;;;;5066267;28;20124;-83
2022/04/30 03:59:56;;;;;;;10.70;5.63;;;;;;;;;;5066024;28;20112;-84
2022/04/30 04:02:23;;;;;;;14.67;5.43;;;;;;;;;;5033789;28;20129;-84
2022/04/30 04:04:50;;;;;;;10.80;5.20;;;;;;;;;;5066115;28;20048;-83
2022/04/30 04:07:18;;;;;;;9.90;5.17;;;;;;;;;;5066194;28;20018;-83
2022/04/30 04:09:43;;;;;;;12.83;5.23;;;;;;;;;;5034077;28;20036;-83
2022/04/30 04:12:09;;;;;;;12.93;5.57;;;;;;;;;;5065311;28;20042;-83
2022/04/30 04:20:02;;;;;;;12.33;5.63;;;;;;;;;;5034176;28;20105;-83
2022/04/30 04:22:28;;;;;;;11.00;5.83;;;;;;;;;;5064920;28;20025;-83
2022/04/30 04:27:37;;;;;;;14.37;6.13;;;;;;;;;;5034314;28;20159;-83
2022/04/30 04:30:03;;;;;;;11.87;5.87;;;;;;;;;;5049184;28;20486;-83
2022/04/30 04:32:28;;;;;;;13.87;6.17;;;;;;;;;;5065277;28;20014;-83
2022/04/30 04:34:53;;;;;;;16.37;7.00;;;;;;;;;;5065602;28;20060;-83
2022/04/30 04:37:18;;;;;;;13.50;6.17;;;;;;;;;;5065489;28;20033;-83
2022/04/30 04:39:44;;;;;;;15.60;5.80;;;;;;;;;;5065513;28;20083;-83
2022/04/30 04:42:09;;;;;;;16.13;6.20;;;;;;;;;;5065402;28;20025;-84
2022/04/30 04:44:34;;;;;;;17.83;6.23;;;;;;;;;;5033510;28;20021;-83
2022/04/30 04:47:00;;;;;;;12.07;5.47;;;;;;;;;;5032946;28;20357;-84
2022/04/30 04:49:26;;;;;;;14.37;6.03;;;;;;;;;;5064416;28;20070;-84
2022/04/30 04:51:51;;;;;;;14.60;5.90;;;;;;;;;;5032813;28;20013;-84
2022/04/30 04:54:16;;;;;;;13.07;6.03;;;;;;;;;;5048530;28;20021;-84
2022/04/30 04:56:42;;;;;;;13.37;5.73;;;;;;;;;;5065094;28;20018;-84
2022/04/30 04:59:08;;;;;;;12.00;5.73;;;;;;;;;;5065296;28;20017;-83
2022/04/30 05:01:34;;;;;;;12.87;6.33;;;;;;;;;;5032589;28;20021;-84
2022/04/30 05:03:59;;;;;;;14.53;6.17;;;;;;;;;;5064424;28;20029;-83
2022/04/30 05:06:25;;;;;;;13.43;5.97;;;;;;;;;;5064962;28;20017;-84
2022/04/30 05:08:50;;;;;;;13.27;5.87;;;;;;;;;;5032995;28;20082;-83
2022/04/30 05:11:15;;;;;;;11.10;5.87;;;;;;;;;;5064294;28;20018;-83
2022/04/30 05:13:40;;;;;;;16.17;6.53;;;;;;;;;;5064576;28;20591;-83
2022/04/30 05:16:06;;;;;;;18.40;6.33;;;;;;;;;;5064925;28;20025;-83
2022/04/30 05:18:31;;;;;;;16.43;6.37;;;;;;;;;;5064673;28;20171;-84
2022/04/30 05:20:56;;;;;;;18.63;6.40;;;;;;;;;;5033036;28;20099;-83
2022/04/30 05:23:21;;;;;;;17.77;7.43;;;;;;;;;;5064130;28;20160;-83
2022/04/30 05:25:46;;;;;;;13.00;5.70;;;;;;;;;;5064776;28;20036;-83
2022/04/30 05:28:12;;;;;;;15.50;6.30;;;;;;;;;;5064722;28;20026;-83
2022/04/30 05:30:37;;;;;;;12.73;6.43;;;;;;;;;;5064659;28;20017;-83
2022/04/30 05:33:02;;;;;;;14.57;6.93;;;;;;;;;;5064056;28;20096;-83
2022/04/30 05:35:28;;;;;;;17.30;7.27;;;;;;;;;;5032411;28;20022;-83
2022/04/30 05:37:53;;;;;;;12.63;6.67;;;;;;;;;;5064343;28;20100;-84
2022/04/30 05:40:18;;;;;;;13.50;7.03;;;;;;;;;;5047852;28;20025;-83
2022/04/30 05:42:44;;;;;;;16.40;7.07;;;;;;;;;;5063544;28;20484;-84
2022/04/30 05:45:09;;;;;;;16.33;7.17;;;;;;;;;;5064193;28;20040;-84
2022/04/30 05:47:34;;;;;;;17.30;7.60;;;;;;;;;;5064065;28;20511;-83
2022/04/30 05:49:59;;;;;;;12.03;6.60;;;;;;;;;;5063888;28;20032;-83
2022/04/30 05:52:24;;;;;;;17.33;6.67;;;;;;;;;;5031716;28;20026;-84
2022/04/30 05:54:50;;;;;;;12.83;6.93;;;;;;;;;;5047349;28;20021;-83
2022/04/30 05:57:15;;;;;;;18.13;7.40;;;;;;;;;;5031827;28;20492;-83
2022/04/30 05:59:40;;;;;;;17.40;7.60;;;;;;;;;;5063888;28;20116;-84
2022/04/30 06:02:05;;;;;;;14.00;6.90;;;;;;;;;;5030979;28;20082;-84
2022/04/30 06:04:30;;;;;;;21.60;8.00;;;;;;;;;;5063506;28;20021;-83
2022/04/30 06:06:56;;;;;;;12.33;7.10;;;;;;;;;;5064033;28;20155;-83
2022/04/30 06:09:21;;;;;;;11.20;6.70;;;;;;;;;;5047289;28;20021;-84
2022/04/30 06:11:47;;;;;;;17.03;7.70;;;;;;;;;;5063181;28;20025;-83
2022/04/30 06:14:12;;;;;;;16.20;7.77;;;;;;;;;;5063649;28;20018;-83
2022/04/30 06:16:37;;;;;;;14.10;7.13;;;;;;;;;;5031909;28;20025;-84
2022/04/30 06:19:03;;;;;;;18.30;7.80;;;;;;;;;;5063937;28;20025;-84
2022/04/30 06:21:28;;;;;;;14.70;7.00;;;;;;;;;;5047116;28;20440;-83
2022/04/30 06:23:53;;;;;;;17.50;8.32;;;;;;;;;;5031535;28;20096;-84
2022/04/30 06:26:18;;;;;;;18.55;7.95;;;;;;;;;;5063743;28;20053;-83
2022/04/30 06:28:43;;;;;;;13.50;7.63;;;;;;;;;;5063860;28;20108;-83
2022/04/30 06:31:09;;;;;;;14.05;6.88;;;;;;;;;;5063641;28;20018;-84
2022/04/30 06:33:34;;;;;;;17.80;7.47;;;;;;;;;;5063724;28;20461;-83
2022/04/30 06:35:59;;;;;;;20.00;7.75;;;;;;;;;;5063670;28;20080;-84
2022/04/30 06:38:24;;;;;;;12.93;6.95;;;;;;;;;;5046490;28;20017;-83
2022/04/30 06:40:49;;;;;;;19.83;7.25;;;;;;;;;;5063488;28;20025;-83
2022/04/30 06:43:15;;;;;;;10.18;5.68;;;;;;;;;;5063406;28;20025;-84
2022/04/30 06:45:40;;;;;;;13.15;6.63;;;;;;;;;;5063633;28;20021;-84
2022/04/30 06:48:06;;;;;;;15.60;6.97;;;;;;;;;;5063548;28;20457;-83
2022/04/30 06:50:31;;;;;;;18.70;6.80;;;;;;;;;;5063238;28;20478;-84
2022/04/30 06:58:24;;;;;;;17.13;6.30;;;;;;;;;;5031868;28;20064;-84
2022/04/30 07:03:23;;;;;;;22.90;7.28;;;;;;;;;;5031245;28;20025;-83
2022/04/30 07:05:52;;;;;;;13.10;6.32;;;;;;;;;;5063778;28;20482;-84
2022/04/30 07:08:18;;;;;;;14.38;6.75;;;;;;;;;;5063292;28;20029;-84
2022/04/30 07:10:43;;;;;;;17.10;6.75;;;;;;;;;;5062962;28;20029;-83
2022/04/30 07:13:08;;;;;;;16.45;7.22;;;;;;;;;;5032711;28;20404;-84
2022/04/30 07:15:34;;;;;;;16.05;6.70;;;;;;;;;;5035028;28;20030;-84
2022/04/30 07:17:59;;;;;;;12.38;6.63;;;;;;;;;;5034963;28;20468;-83
2022/04/30 07:20:24;;;;;;;20.30;6.72;;;;;;;;;;5067131;28;20080;-84
2022/04/30 07:22:49;;;;;;;10.68;5.95;;;;;;;;;;5066406;28;20025;-84
2022/04/30 07:25:14;;;;;;;16.42;6.05;;;;;;;;;;5050320;28;20014;-84
2022/04/30 07:27:40;;;;;;;12.90;6.68;;;;;;;;;;5035050;28;20087;-84
2022/04/30 07:30:06;;;;;;;14.90;7.05;;;;;;;;;;5067031;28;20027;-84
2022/04/30 07:32:31;;;;;;;9.45;5.07;;;;;;;;;;5049656;28;20014;-84
2022/04/30 07:34:56;;;;;;;13.48;6.03;;;;;;;;;;5067063;28;20055;-84
2022/04/30 07:37:21;;;;;;;10.25;5.03;;;;;;;;;;5049851;28;20021;-84
2022/04/30 07:39:46;;;;;;;8.55;4.47;;;;;;;;;;5066426;28;20061;-84
2022/04/30 07:42:12;;;;;;;11.73;5.65;;;;;;;;;;5066518;28;20030;-84
2022/04/30 07:44:37;;;;;;;12.38;5.68;;;;;;;;;;5066886;28;20028;-84
2022/04/30 07:47:02;;;;;;;9.95;5.18;;;;;;;;;;5066439;28;20028;-84
2022/04/30 07:49:27;;;;;;;11.18;5.80;;;;;;;;;;5066367;28;20024;-84
2022/04/30 07:51:55;;;;;;;11.45;5.80;;;;;;;;;;5066069;28;20018;-84
2022/04/30 07:54:20;;;;;;;11.40;5.78;;;;;;;;;;5066381;28;20025;-83
2022/04/30 07:56:47;;;;;;;10.60;5.68;;;;;;;;;;5066008;28;20025;-83
2022/04/30 07:59:12;;;;;;;20.67;6.18;;;;;;;;;;5033950;28;20080;-84
2022/04/30 08:01:37;;;;;;;16.58;6.85;;;;;;;;;;5065714;28;20073;-83
2022/04/30 08:04:02;;;;;;;11.30;4.97;;;;;;;;;;5066231;28;20452;-83
2022/04/30 08:06:27;;;;;;;14.90;6.40;;;;;;;;;;5066213;28;20022;-84
2022/04/30 08:08:53;;;;;;;12.13;4.93;;;;;;;;;;5048921;28;20484;-83
2022/04/30 08:11:18;;;;;;;10.90;4.43;;;;;;;;;;5048986;28;20182;-83
2022/04/30 08:13:43;;;;;;;10.63;4.88;;;;;;;;;;5066025;28;20064;-84
2022/04/30 08:16:09;;;;;;;16.30;4.80;;;;;;;;;;5033857;28;20040;-84
2022/04/30 08:18:35;;;;;;;7.97;4.22;;;;;;;;;;5034228;28;20461;-83
2022/04/30 08:21:00;;;;;;;16.77;5.00;;;;;;;;;;5065313;28;20167;-83
2022/04/30 08:23:26;;;;;;;10.80;3.75;;;;;;;;;;5033470;28;20385;-84
2022/04/30 08:25:51;;;;;;;14.40;4.53;;;;;;;;;;5032781;28;20022;-84
2022/04/30 08:28:16;;;;;;;9.00;4.53;;;;;;;;;;5033457;28;20034;-83
2022/04/30 08:30:41;;;;;;;6.65;3.75;;;;;;;;;;5033480;28;20064;-83
2022/04/30 08:33:09;;;;;;;13.02;4.30;;;;;;;;;;5065316;28;20420;-83
2022/04/30 08:35:34;;;;;;;10.40;5.03;;;;;;;;;;5065771;28;20476;-83
2022/04/30 08:37:59;;;;;;;9.00;3.28;;;;;;;;;;5065686;28;20028;-83
2022/04/30 08:40:25;;;;;;;9.38;3.75;;;;;;;;;;5065683;28;20075;-84
2022/04/30 08:42:50;;;;;;;12.20;4.38;;;;;;;;;;5065085;28;20018;-84
2022/04/30 08:45:16;;;;;;;9.13;4.32;;;;;;;;;;5065808;28;20018;-83
2022/04/30 08:47:42;;;;;;;9.82;4.40;;;;;;;;;;5065239;28;20018;-83
2022/04/30 08:50:11;;;;;;;11.90;5.05;;;;;;;;;;5065390;28;20028;-83
2022/04/30 08:52:36;;;;;;;9.82;4.80;;;;;;;;;;5032601;28;20044;-83
2022/04/30 08:55:02;;;;;;;7.97;4.35;;;;;;;;;;5032981;28;20025;-83
2022/04/30 08:57:28;;;;;;;8.48;4.57;;;;;;;;;;5064956;28;20025;-83
2022/04/30 08:59:53;;;;;;;11.52;4.82;;;;;;;;;;5065274;28;20423;-83
2022/04/30 09:02:19;;;;;;;7.53;4.68;;;;;;;;;;5064826;28;20021;-83
2022/04/30 09:04:45;;;;;;;15.60;4.90;;;;;;;;;;5048214;28;20071;-83
2022/04/30 09:07:12;;;;;;;14.65;4.50;;;;;;;;;;5048489;28;20021;-83
2022/04/30 09:09:37;;;;;;;10.02;5.00;;;;;;;;;;5065447;28;20457;-83
2022/04/30 09:12:06;;;;;;;9.07;4.45;;;;;;;;;;5032354;28;20025;-83
2022/04/30 09:14:31;;;;;;;11.60;4.68;;;;;;;;;;5032784;28;20025;-83
2022/04/30 09:17:15;;;;;;;6.80;4.43;;;;;;;;;;5065081;28;20021;-83
2022/04/30 09:19:59;;;;;;;8.23;4.32;;;;;;;;;;5033076;28;20019;-83
2022/04/30 09:22:38;;;;;;;7.72;3.97;;;;;;;;;;5064084;28;20106;-83
2022/04/30 09:25:03;;;;;;;8.38;4.05;;;;;;;;;;5064416;28;20604;-83
2022/04/30 09:27:28;;;;;;;7.22;4.18;;;;;;;;;;5064596;28;20037;-83
2022/04/30 09:29:53;;;;;;;9.35;4.72;;;;;;;;;;5064747;28;20065;-83
2022/04/30 09:32:22;;;;;;;9.18;5.20;;;;;;;;;;5032348;28;20017;-83
2022/04/30 09:37:41;;;;;;;7.85;4.35;;;;;;;;;;5032072;28;20171;-83
2022/04/30 09:40:12;;;;;;;8.43;4.32;;;;;;;;;;5064269;28;20017;-83
2022/04/30 09:42:38;;;;;;;6.97;3.88;;;;;;;;;;5064167;28;20024;-83
2022/04/30 09:45:04;;;;;;;8.38;4.25;;;;;;;;;;5064253;28;20029;-83
2022/04/30 09:47:29;;;;;;;7.88;4.22;;;;;;;;;;5032360;28;20112;-84
2022/04/30 09:55:23;;;;;;;8.35;3.00;;;;;;;;;;5032766;28;20029;-83
2022/04/30 09:57:48;;;;;;;5.43;3.72;;;;;;;;;;5047701;28;20472;-83
2022/04/30 10:00:14;;;;;;;6.22;4.45;;;;;;;;;;5064043;28;20025;-83
2022/04/30 10:02:40;;;;;;;6.90;3.47;;;;;;;;;;5063555;28;20017;-83
2022/04/30 10:05:06;;;;;;;9.45;4.57;;;;;;;;;;5063877;28;20071;-83
2022/04/30 10:07:33;;;;;;;11.75;4.75;;;;;;;;;;5063462;28;20018;-83
2022/04/30 10:10:03;;;;;;;7.18;4.60;;;;;;;;;;5031612;28;20049;-84
2022/04/30 10:12:31;;;;;;;6.63;4.35;;;;;;;;;;5030924;28;20021;-84
2022/04/30 10:15:04;;;;;;;11.35;4.45;;;;;;;;;;5063789;28;20029;-84
2022/04/30 10:17:34;;;;;;;14.82;5.40;;;;;;;;;;5063887;28;20127;-83
2022/04/30 10:19:59;;;;;;;9.45;5.15;;;;;;;;;;5063773;28;20040;-84
2022/04/30 10:22:25;;;;;;;8.13;4.78;;;;;;;;;;5031202;28;20382;-83
2022/04/30 10:24:53;;;;;;;10.75;5.20;;;;;;;;;;5063554;28;20029;-83
2022/04/30 10:27:19;;;;;;;9.07;5.07;;;;;;;;;;5064142;28;20377;-83
2022/04/30 10:29:54;;;;;;;15.60;5.30;;;;;;;;;;5063901;28;20017;-83
2022/04/30 10:32:33;;;;;;;9.45;5.30;;;;;;;;;;5046550;28;20484;-83
2022/04/30 10:34:59;;;;;;;9.05;4.10;;;;;;;;;;5063683;28;20465;-84
2022/04/30 10:37:28;;;;;;;9.23;4.63;;;;;;;;;;5063355;28;20076;-84
2022/04/30 10:40:02;;;;;;;7.85;4.63;;;;;;;;;;5047094;28;20030;-83
2022/04/30 10:42:48;;;;;;;6.72;4.10;;;;;;;;;;5030895;28;20483;-83
2022/04/30 10:45:15;;;;;;;8.32;4.13;;;;;;;;;;5029664;28;20069;-83
2022/04/30 10:47:52;;;;;;;10.25;4.40;;;;;;;;;;5032428;28;20022;-84
2022/04/30 10:50:17;;;;;;;10.77;4.20;;;;;;;;;;5067370;28;20101;-84
2022/04/30 10:52:44;;;;;;;7.47;4.13;;;;;;;;;;5035441;28;20476;-83
2022/04/30 10:55:10;;;;;;;7.93;4.57;;;;;;;;;;5067751;28;20029;-83
2022/04/30 10:57:41;;;;;;;7.07;4.18;;;;;;;;;;5067156;28;20079;-83
2022/04/30 11:00:07;;;;;;;7.88;4.18;;;;;;;;;;5035220;28;20025;-84
2022/04/30 11:02:32;;;;;;;8.98;4.45;;;;;;;;;;5066770;28;20032;-83
2022/04/30 11:04:58;;;;;;;8.98;4.05;;;;;;;;;;5035467;28;20021;-84
2022/04/30 11:07:26;;;;;;;8.80;3.80;;;;;;;;;;5067508;28;20014;-83
2022/04/30 11:09:51;;;;;;;8.57;4.30;;;;;;;;;;5067389;28;20064;-84
2022/04/30 11:12:16;;;;;;;6.38;4.45;;;;;;;;;;5066688;28;20061;-83
2022/04/30 11:14:44;;;;;;;9.43;4.80;;;;;;;;;;5035037;28;20512;-84
2022/04/30 11:17:09;;;;;;;8.50;4.45;;;;;;;;;;5067298;28;20029;-83
2022/04/30 11:19:38;;;;;;;10.90;5.15;;;;;;;;;;5067364;28;20025;-83
2022/04/30 11:22:05;;;;;;;9.00;4.75;;;;;;;;;;5034487;28;20048;-84
2022/04/30 11:24:31;;;;;;;6.13;2.58;;;;;;;;;;5050277;28;20025;-83
2022/04/30 11:26:56;;;;;;;7.78;5.03;;;;;;;;;;5034743;28;20080;-84
2022/04/30 11:29:22;;;;;;;7.20;5.10;;;;;;;;;;5066578;28;20013;-84
2022/04/30 11:31:49;;;;;;;9.65;4.97;;;;;;;;;;5034366;28;20373;-83
2022/04/30 11:34:17;;;;;;;7.20;4.80;;;;;;;;;;5066695;28;20024;-84
2022/04/30 11:36:53;;;;;;;10.45;5.25;;;;;;;;;;5066421;28;20226;-83
2022/04/30 11:39:19;;;;;;;6.82;4.65;;;;;;;;;;5034939;28;20100;-83
2022/04/30 11:41:45;;;;;;;12.32;5.50;;;;;;;;;;5034276;28;20152;-83
2022/04/30 11:44:14;;;;;;;7.57;4.43;;;;;;;;;;5034741;28;20014;-83
2022/04/30 11:46:40;;;;;;;8.73;5.05;;;;;;;;;;5049859;28;20116;-83
2022/04/30 11:49:12;;;;;;;11.73;5.40;;;;;;;;;;5066690;28;20476;-83
2022/04/30 11:51:38;;;;;;;8.73;5.70;;;;;;;;;;5066299;28;20025;-84
2022/04/30 11:54:04;;;;;;;14.82;5.95;;;;;;;;;;5065927;28;20025;-83
2022/04/30 11:56:30;;;;;;;8.55;5.20;;;;;;;;;;5066080;28;20492;-83
2022/04/30 11:58:55;;;;;;;9.88;5.82;;;;;;;;;;5064940;28;20021;-83
2022/04/30 12:01:30;;;;;;;7.32;4.35;;;;;;;;;;5065825;28;20018;-84
2022/04/30 12:04:00;;;;;;;11.70;5.65;;;;;;;;;;5066209;28;20380;-83
2022/04/30 12:06:26;;;;;;;9.88;5.88;;;;;;;;;;5066093;28;20032;-84
2022/04/30 12:08:51;;;;;;;11.93;4.90;;;;;;;;;;5034025;28;20464;-84
2022/04/30 12:11:16;;;;;;;10.02;4.93;;;;;;;;;;5048809;28;20036;-84
2022/04/30 12:13:41;;;;;;;9.27;5.72;;;;;;;;;;5033971;28;20025;-83
2022/04/30 12:16:07;;;;;;;9.35;5.97;;;;;;;;;;5049709;28;20028;-83
2022/04/30 12:26:55;;;;;;;13.55;6.05;;;;;;;;;;5033982;28;20102;-83
2022/04/30 12:29:21;;;;;;;10.73;5.15;;;;;;;;;;5065435;28;20014;-83
2022/04/30 12:31:47;;;;;;;11.38;5.38;;;;;;;;;;5065359;28;20018;-83
2022/04/30 12:34:19;;;;;;;9.00;5.57;;;;;;;;;;5065745;28;20128;-83
2022/04/30 12:36:52;;;;;;;8.52;5.22;;;;;;;;;;5065698;28;20392;-83
2022/04/30 12:39:20;;;;;;;8.95;4.97;;;;;;;;;;5065392;28;20021;-84
2022/04/30 12:41:45;;;;;;;10.23;5.10;;;;;;;;;;5064876;28;20025;-83
2022/04/30 12:44:11;;;;;;;14.70;5.68;;;;;;;;;;5065217;28;20028;-83
2022/04/30 12:46:36;;;;;;;11.68;5.13;;;;;;;;;;5065396;28;20021;-83
2022/04/30 12:49:01;;;;;;;9.38;5.15;;;;;;;;;;5065251;28;20063;-83
2022/04/30 12:51:26;;;;;;;10.75;4.47;;;;;;;;;;5048359;28;20025;-83
2022/04/30 12:53:51;;;;;;;9.73;5.22;;;;;;;;;;5033351;28;20111;-84
2022/04/30 12:56:17;;;;;;;13.90;5.07;;;;;;;;;;5065284;28;20025;-84
2022/04/30 12:58:43;;;;;;;9.63;4.93;;;;;;;;;;5065447;28;20025;-83
2022/04/30 13:01:08;;;;;;;12.10;5.47;;;;;;;;;;5064877;28;20045;-84
2022/04/30 13:03:34;;;;;;;9.95;5.18;;;;;;;;;;5065109;28;20021;-84
2022/04/30 13:05:59;;;;;;;11.02;4.80;;;;;;;;;;5048348;28;20025;-84
2022/04/30 13:13:30;;;;;;;13.85;5.93;;;;;;;;;;5032814;28;20014;-84
2022/04/30 13:13:53;;;;;;;9.63;5.50;;;;;;;;;;5032895;28;20028;-83
2022/04/30 13:16:19;;;;;;;12.65;5.47;;;;;;;;;;5064837;28;20472;-84
2022/04/30 13:18:45;;;;;;;13.85;6.10;;;;;;;;;;5065081;28;20022;-84
2022/04/30 13:21:10;;;;;;;11.65;5.43;;;;;;;;;;5047792;28;20460;-84
2022/04/30 13:23:36;;;;;;;7.60;4.68;;;;;;;;;;5032305;28;20056;-84
2022/04/30 13:26:05;;;;;;;10.10;4.82;;;;;;;;;;5032990;28;20025;-83
2022/04/30 13:28:30;;;;;;;13.02;5.95;;;;;;;;;;5064638;28;20034;-83
2022/04/30 13:30:56;;;;;;;12.77;6.93;;;;;;;;;;5031947;28;20426;-83
2022/04/30 13:33:21;;;;;;;17.20;6.22;;;;;;;;;;5032397;28;20533;-83
2022/04/30 13:35:46;;;;;;;10.38;5.15;;;;;;;;;;5032328;28;20021;-84
2022/04/30 13:38:11;;;;;;;10.93;5.55;;;;;;;;;;5064024;28;20171;-83
2022/04/30 13:40:36;;;;;;;12.43;6.10;;;;;;;;;;5031979;28;20021;-83
2022/04/30 13:43:02;;;;;;;9.63;5.70;;;;;;;;;;5064627;28;20018;-83
2022/04/30 13:45:28;;;;;;;10.05;5.60;;;;;;;;;;5032490;28;20068;-84
2022/04/30 13:47:53;;;;;;;14.32;4.75;;;;;;;;;;5064024;28;20025;-84
2022/04/30 13:50:18;;;;;;;17.05;6.25;;;;;;;;;;5031831;28;20044;-83
2022/04/30 13:52:45;;;;;;;9.30;5.50;;;;;;;;;;5064069;28;20408;-84
2022/04/30 13:55:12;;;;;;;9.70;5.70;;;;;;;;;;5032115;28;20032;-83
2022/04/30 13:57:38;;;;;;;12.10;5.93;;;;;;;;;;5064438;28;20063;-83
2022/04/30 14:00:04;;;;;;;12.82;6.00;;;;;;;;;;5064083;28;20057;-83
2022/04/30 14:02:30;;;;;;;14.80;5.57;;;;;;;;;;5063649;28;20045;-83
2022/04/30 14:04:55;;;;;;;11.80;5.47;;;;;;;;;;5032045;28;20025;-83
2022/04/30 14:07:20;;;;;;;20.67;7.15;;;;;;;;;;5063718;28;20112;-83
2022/04/30 14:09:45;;;;;;;11.50;4.93;;;;;;;;;;5063593;28;20010;-83
2022/04/30 14:12:11;;;;;;;12.20;5.57;;;;;;;;;;5063314;28;20025;-83
2022/04/30 14:20:05;;;;;;;19.17;5.50;;;;;;;;;;5032001;28;20064;-84
2022/04/30 14:22:30;;;;;;;18.25;10.07;;;;;;;;;;5062796;28;20029;-83
2022/04/30 14:24:55;;;;;;;12.27;5.63;;;;;;;;;;5030477;28;20033;-83
2022/04/30 14:27:21;;;;;;;9.93;6.10;;;;;;;;;;5047102;28;20488;-83
2022/04/30 14:29:47;;;;;;;13.93;5.80;;;;;;;;;;5063729;28;20108;-83
2022/04/30 14:32:12;;;;;;;10.55;6.30;;;;;;;;;;5063304;28;20026;-83
2022/04/30 14:34:39;;;;;;;9.50;5.32;;;;;;;;;;5064115;28;20079;-83
2022/04/30 14:37:04;;;;;;;11.38;6.00;;;;;;;;;;5063865;28;20098;-84
2022/04/30 14:39:29;;;;;;;9.82;5.40;;;;;;;;;;5031757;28;20029;-83
2022/04/30 14:41:54;;;;;;;10.40;5.90;;;;;;;;;;5063341;28;20029;-84
2022/04/30 14:44:20;;;;;;;9.10;5.68;;;;;;;;;;5031410;28;20373;-83
2022/04/30 14:46:45;;;;;;;16.27;8.73;;;;;;;;;;5063364;28;20476;-83
2022/04/30 14:49:10;;;;;;;14.32;7.22;;;;;;;;;;5063397;28;20025;-83
2022/04/30 14:51:35;;;;;;;13.38;5.32;;;;;;;;;;5063371;28;20057;-83
2022/04/30 14:54:01;;;;;;;11.75;5.60;;;;;;;;;;5063485;28;20033;-83
2022/04/30 14:56:26;;;;;;;13.35;6.72;;;;;;;;;;5063696;28;20075;-83
2022/04/30 14:58:51;;;;;;;12.55;6.03;;;;;;;;;;5063531;28;20108;-83
2022/04/30 15:01:16;;;;;;;12.32;5.75;;;;;;;;;;5063257;28;20068;-83
2022/04/30 15:03:43;;;;;;;9.38;5.90;;;;;;;;;;5063443;28;20504;-84
2022/04/30 15:06:08;;;;;;;10.05;6.10;;;;;;;;;;5063608;28;20108;-83
2022/04/30 15:08:34;;;;;;;10.57;5.30;;;;;;;;;;5046926;28;20113;-83
2022/04/30 15:10:59;;;;;;;14.32;5.53;;;;;;;;;;5031041;28;20029;-83
2022/04/30 15:13:24;;;;;;;9.55;5.20;;;;;;;;;;5063180;28;20018;-83
2022/04/30 15:15:49;;;;;;;11.55;5.50;;;;;;;;;;5046441;28;20017;-83
2022/04/30 15:18:15;;;;;;;15.70;5.80;;;;;;;;;;5063076;28;20029;-83
2022/04/30 15:20:40;;;;;;;11.35;5.80;;;;;;;;;;5062401;28;20024;-83
2022/04/30 15:23:05;;;;;;;9.30;5.38;;;;;;;;;;5031013;28;20104;-84